sensor_id;sensor_type;location;lat;lon;timestamp;pressure;altitude;pressure_sealevel;temperature;humidity
64362;BME280;50685;53.346;-6.296;2023-05-20T00:02:17;102917.66;;;14.53;59.16
64362;BME280;50685;53.346;-6.296;2023-05-20T00:04:52;102893.50;;;14.30;59.33
64362;BME280;50685;53.346;-6.296;2023-05-20T01:10:38;102897.94;;;14.34;63.51
64362;BME280;50685;53.346;-6.296;2023-05-20T01:13:10;102896.22;;;14.42;63.38
64362;BME280;50685;53.346;-6.296;2023-05-20T01:15:47;102893.59;;;14.47;63.39
64362;BME280;50685;53.346;-6.296;2023-05-20T01:18:14;102880.22;;;14.41;62.95
64362;BME280;50685;53.346;-6.296;2023-05-20T01:21:25;102884.66;;;14.40;62.79
64362;BME280;50685;53.346;-6.296;2023-05-20T01:23:51;102881.13;;;14.44;62.73
64362;BME280;50685;53.346;-6.296;2023-05-20T01:26:22;102898.97;;;14.56;62.44
64362;BME280;50685;53.346;-6.296;2023-05-20T01:28:54;102897.19;;;14.57;62.40
64362;BME280;50685;53.346;-6.296;2023-05-20T01:31:33;102865.97;;;14.40;62.52
64362;BME280;50685;53.346;-6.296;2023-05-20T01:34:32;102858.81;;;14.35;62.71
64362;BME280;50685;53.346;-6.296;2023-05-20T01:37:03;102888.25;;;14.47;62.47
64362;BME280;50685;53.346;-6.296;2023-05-20T01:39:36;102890.94;;;14.53;62.58
64362;BME280;50685;53.346;-6.296;2023-05-20T01:45:40;102848.13;;;14.30;62.39
64362;BME280;50685;53.346;-6.296;2023-05-20T01:48:31;102882.91;;;14.45;62.61
64362;BME280;50685;53.346;-6.296;2023-05-20T02:01:11;102880.16;;;14.32;64.93
64362;BME280;50685;53.346;-6.296;2023-05-20T02:04:00;102865.84;;;14.22;66.57
64362;BME280;50685;53.346;-6.296;2023-05-20T02:06:34;102876.56;;;14.23;66.73
64362;BME280;50685;53.346;-6.296;2023-05-20T02:18:15;102863.09;;;14.00;68.78
64362;BME280;50685;53.346;-6.296;2023-05-20T02:24:20;102812.22;;;13.72;68.04
64362;BME280;50685;53.346;-6.296;2023-05-20T02:27:33;102852.34;;;13.88;67.59
64362;BME280;50685;53.346;-6.296;2023-05-20T02:36:54;102863.06;;;13.95;67.46
64362;BME280;50685;53.346;-6.296;2023-05-20T02:39:23;102805.06;;;13.65;67.46
64362;BME280;50685;53.346;-6.296;2023-05-20T02:41:56;102822.94;;;13.77;67.71
64362;BME280;50685;53.346;-6.296;2023-05-20T02:44:33;102855.03;;;13.97;67.39
64362;BME280;50685;53.346;-6.296;2023-05-20T02:47:37;102822.88;;;13.72;67.60
64362;BME280;50685;53.346;-6.296;2023-05-20T02:50:23;102865.72;;;13.94;68.37
64362;BME280;50685;53.346;-6.296;2023-05-20T02:56:24;102842.50;;;13.84;68.75
64362;BME280;50685;53.346;-6.296;2023-05-20T02:59:22;102830.97;;;13.85;69.29
64362;BME280;50685;53.346;-6.296;2023-05-20T03:01:53;102843.47;;;13.89;68.98
64362;BME280;50685;53.346;-6.296;2023-05-20T03:04:18;102845.22;;;13.88;69.25
64362;BME280;50685;53.346;-6.296;2023-05-20T03:06:45;102840.75;;;13.87;69.61
64362;BME280;50685;53.346;-6.296;2023-05-20T03:09:16;102840.75;;;13.86;69.71
64362;BME280;50685;53.346;-6.296;2023-05-20T03:12:17;102834.50;;;13.80;70.29
64362;BME280;50685;53.346;-6.296;2023-05-20T03:15:21;102830.94;;;13.78;70.12
64362;BME280;50685;53.346;-6.296;2023-05-20T03:17:58;102824.72;;;13.79;70.38
64362;BME280;50685;53.346;-6.296;2023-05-20T03:21:09;102825.56;;;13.74;70.16
64362;BME280;50685;53.346;-6.296;2023-05-20T03:23:46;102815.75;;;13.71;71.06
64362;BME280;50685;53.346;-6.296;2023-05-20T03:26:17;102822.88;;;13.71;71.15
64362;BME280;50685;53.346;-6.296;2023-05-20T03:32:15;102795.19;;;13.50;70.88
64362;BME280;50685;53.346;-6.296;2023-05-20T03:34:48;102760.38;;;13.33;71.04
64362;BME280;50685;53.346;-6.296;2023-05-20T03:37:33;102826.38;;;13.65;71.74
64362;BME280;50685;53.346;-6.296;2023-05-20T03:40:09;102821.06;;;13.62;72.07
64362;BME280;50685;53.346;-6.296;2023-05-20T03:42:44;102821.06;;;13.62;71.96
64362;BME280;50685;53.346;-6.296;2023-05-20T03:45:13;102815.72;;;13.62;71.91
64362;BME280;50685;53.346;-6.296;2023-05-20T03:47:44;102805.06;;;13.63;71.97
64362;BME280;50685;53.346;-6.296;2023-05-20T03:50:11;102802.38;;;13.65;72.01
64362;BME280;50685;53.346;-6.296;2023-05-20T03:52:45;102799.75;;;13.68;71.87
64362;BME280;50685;53.346;-6.296;2023-05-20T03:55:11;102789.09;;;13.68;71.96
64362;BME280;50685;53.346;-6.296;2023-05-20T04:00:57;102802.38;;;13.63;71.81
64362;BME280;50685;53.346;-6.296;2023-05-20T04:03:59;102802.38;;;13.63;71.98
64362;BME280;50685;53.346;-6.296;2023-05-20T04:19:46;102770.31;;;13.53;71.71
64362;BME280;50685;53.346;-6.296;2023-05-20T04:25:37;102796.16;;;13.61;72.38
64362;BME280;50685;53.346;-6.296;2023-05-20T04:28:05;102793.50;;;13.63;72.47
64362;BME280;50685;53.346;-6.296;2023-05-20T04:30:48;102753.38;;;13.44;72.90
64362;BME280;50685;53.346;-6.296;2023-05-20T04:33:17;102789.06;;;13.65;72.82
64362;BME280;50685;53.346;-6.296;2023-05-20T04:36:05;102803.25;;;13.62;72.64
64362;BME280;50685;53.346;-6.296;2023-05-20T04:39:09;102759.50;;;13.36;73.11
64362;BME280;50685;53.346;-6.296;2023-05-20T04:41:44;102772.94;;;13.43;72.90
64362;BME280;50685;53.346;-6.296;2023-05-20T04:44:15;102805.06;;;13.62;73.03
64362;BME280;50685;53.346;-6.296;2023-05-20T04:46:40;102805.06;;;13.62;73.26
64362;BME280;50685;53.346;-6.296;2023-05-20T04:49:16;102799.72;;;13.63;73.51
64362;BME280;50685;53.346;-6.296;2023-05-20T04:54:54;102798.84;;;13.64;73.99
64362;BME280;50685;53.346;-6.296;2023-05-20T05:01:51;102802.38;;;13.62;74.67
64362;BME280;50685;53.346;-6.296;2023-05-20T05:04:39;102780.03;;;13.44;74.43
64362;BME280;50685;53.346;-6.296;2023-05-20T05:07:13;102810.38;;;13.62;74.23
64362;BME280;50685;53.346;-6.296;2023-05-20T05:17:41;102803.25;;;13.61;74.52
64362;BME280;50685;53.346;-6.296;2023-05-20T05:20:18;102798.81;;;13.61;74.63
64362;BME280;50685;53.346;-6.296;2023-05-20T05:22:50;102812.19;;;13.63;74.49
64362;BME280;50685;53.346;-6.296;2023-05-20T05:28:23;102752.38;;;13.33;74.95
64362;BME280;50685;53.346;-6.296;2023-05-20T05:33:52;102799.72;;;13.65;74.62
64362;BME280;50685;53.346;-6.296;2023-05-20T05:36:23;102794.44;;;13.68;74.75
64362;BME280;50685;53.346;-6.296;2023-05-20T05:38:50;102797.09;;;13.68;74.83
64362;BME280;50685;53.346;-6.296;2023-05-20T05:41:26;102760.53;;;13.52;74.58
64362;BME280;50685;53.346;-6.296;2023-05-20T05:43:54;102788.19;;;13.64;74.52
64362;BME280;50685;53.346;-6.296;2023-05-20T05:46:38;102783.75;;;13.71;74.44
64362;BME280;50685;53.346;-6.296;2023-05-20T05:49:06;102799.75;;;13.71;74.43
64362;BME280;50685;53.346;-6.296;2023-05-20T05:54:26;102761.44;;;13.54;74.71
64362;BME280;50685;53.346;-6.296;2023-05-20T05:57:03;102796.22;;;13.71;74.17
64362;BME280;50685;53.346;-6.296;2023-05-20T05:59:29;102798.88;;;13.69;74.02
64362;BME280;50685;53.346;-6.296;2023-05-20T06:01:54;102764.06;;;13.50;73.96
64362;BME280;50685;53.346;-6.296;2023-05-20T06:04:22;102795.31;;;13.70;73.96
64362;BME280;50685;53.346;-6.296;2023-05-20T06:09:57;102753.41;;;13.49;73.58
64362;BME280;50685;53.346;-6.296;2023-05-20T06:12:26;102798.00;;;13.73;73.50
64362;BME280;50685;53.346;-6.296;2023-05-20T06:14:51;102791.75;;;13.73;73.52
64362;BME280;50685;53.346;-6.296;2023-05-20T06:17:23;102759.69;;;13.56;73.65
64362;BME280;50685;53.346;-6.296;2023-05-20T06:19:50;102790.00;;;13.73;73.84
64362;BME280;50685;53.346;-6.296;2023-05-20T06:22:16;102764.16;;;13.60;73.72
64362;BME280;50685;53.346;-6.296;2023-05-20T06:24:52;102749.81;;;13.45;73.94
64362;BME280;50685;53.346;-6.296;2023-05-20T06:27:26;102748.94;;;13.48;73.90
64362;BME280;50685;53.346;-6.296;2023-05-20T06:30:00;102765.03;;;13.60;74.12
64362;BME280;50685;53.346;-6.296;2023-05-20T06:32:26;102791.75;;;13.73;74.46
64362;BME280;50685;53.346;-6.296;2023-05-20T06:34:55;102759.63;;;13.48;74.63
64362;BME280;50685;53.346;-6.296;2023-05-20T06:37:31;102766.78;;;13.54;74.18
64362;BME280;50685;53.346;-6.296;2023-05-20T06:39:56;102799.75;;;13.68;74.21
64362;BME280;50685;53.346;-6.296;2023-05-20T06:42:27;102781.94;;;13.61;74.31
64362;BME280;50685;53.346;-6.296;2023-05-20T06:44:56;102740.88;;;13.37;74.37
64362;BME280;50685;53.346;-6.296;2023-05-20T06:47:24;102768.50;;;13.45;74.52
64362;BME280;50685;53.346;-6.296;2023-05-20T06:49:50;102797.06;;;13.65;74.68
64362;BME280;50685;53.346;-6.296;2023-05-20T06:52:18;102770.28;;;13.48;74.92
64362;BME280;50685;53.346;-6.296;2023-05-20T06:54:43;102741.72;;;13.31;74.97
64362;BME280;50685;53.346;-6.296;2023-05-20T06:57:12;102798.84;;;13.64;75.13
64362;BME280;50685;53.346;-6.296;2023-05-20T06:59:37;102788.19;;;13.66;75.08
64362;BME280;50685;53.346;-6.296;2023-05-20T07:02:32;102789.06;;;13.65;75.27
64362;BME280;50685;53.346;-6.296;2023-05-20T07:05:02;102789.09;;;13.68;75.44
64362;BME280;50685;53.346;-6.296;2023-05-20T07:07:28;102777.47;;;13.60;75.51
64362;BME280;50685;53.346;-6.296;2023-05-20T07:09:54;102785.56;;;13.69;75.85
64362;BME280;50685;53.346;-6.296;2023-05-20T07:12:23;102762.31;;;13.49;75.84
64362;BME280;50685;53.346;-6.296;2023-05-20T07:14:51;102804.22;;;13.69;76.44
64362;BME280;50685;53.346;-6.296;2023-05-20T07:17:29;102798.88;;;13.69;76.10
64362;BME280;50685;53.346;-6.296;2023-05-20T07:20:29;102801.56;;;13.69;76.65
64362;BME280;50685;53.346;-6.296;2023-05-20T07:22:54;102804.22;;;13.71;76.54
64362;BME280;50685;53.346;-6.296;2023-05-20T07:25:20;102773.91;;;13.58;76.52
64362;BME280;50685;53.346;-6.296;2023-05-20T07:27:46;102765.91;;;13.55;76.94
64362;BME280;50685;53.346;-6.296;2023-05-20T07:30:20;102811.34;;;13.73;76.72
64362;BME280;50685;53.346;-6.296;2023-05-20T07:32:54;102797.13;;;13.74;77.00
64362;BME280;50685;53.346;-6.296;2023-05-20T07:38:24;102791.84;;;13.80;76.57
64362;BME280;50685;53.346;-6.296;2023-05-20T07:40:55;102795.41;;;13.84;76.89
64362;BME280;50685;53.346;-6.296;2023-05-20T07:46:59;102799.00;;;13.89;76.59
64362;BME280;50685;53.346;-6.296;2023-05-20T07:49:36;102780.25;;;13.80;76.48
64362;BME280;50685;53.346;-6.296;2023-05-20T07:52:05;102766.00;;;13.73;76.51
64362;BME280;50685;53.346;-6.296;2023-05-20T07:54:47;102767.81;;;13.77;76.27
64362;BME280;50685;53.346;-6.296;2023-05-20T07:57:18;102806.16;;;14.00;76.37
64362;BME280;50685;53.346;-6.296;2023-05-20T07:59:44;102773.09;;;13.73;76.50
64362;BME280;50685;53.346;-6.296;2023-05-20T08:02:12;102785.66;;;13.88;76.20
64362;BME280;50685;53.346;-6.296;2023-05-20T08:04:40;102785.66;;;13.89;76.09
64362;BME280;50685;53.346;-6.296;2023-05-20T08:07:05;102819.59;;;14.13;75.96
64362;BME280;50685;53.346;-6.296;2023-05-20T08:24:56;102775.03;;;14.02;75.73
64362;BME280;50685;53.346;-6.296;2023-05-20T08:27:21;102816.97;;;14.26;75.53
64362;BME280;50685;53.346;-6.296;2023-05-20T08:29:47;102801.84;;;14.28;75.11
64362;BME280;50685;53.346;-6.296;2023-05-20T08:32:12;102804.53;;;14.31;75.03
64362;BME280;50685;53.346;-6.296;2023-05-20T08:37:29;102791.22;;;14.36;74.76
64362;BME280;50685;53.346;-6.296;2023-05-20T08:39:58;102759.09;;;14.22;74.49
64362;BME280;50685;53.346;-6.296;2023-05-20T08:42:44;102793.00;;;14.40;74.37
64362;BME280;50685;53.346;-6.296;2023-05-20T08:45:19;102789.44;;;14.49;74.39
64362;BME280;50685;53.346;-6.296;2023-05-20T08:48:03;102788.59;;;14.57;73.55
64362;BME280;50685;53.346;-6.296;2023-05-20T08:50:38;102791.34;;;14.65;73.45
64362;BME280;50685;53.346;-6.296;2023-05-20T08:53:13;102779.75;;;14.71;72.74
64362;BME280;50685;53.346;-6.296;2023-05-20T08:55:55;102776.22;;;14.75;72.59
64362;BME280;50685;53.346;-6.296;2023-05-20T08:58:22;102745.88;;;14.59;72.59
64362;BME280;50685;53.346;-6.296;2023-05-20T09:00:49;102782.44;;;14.88;72.35
64362;BME280;50685;53.346;-6.296;2023-05-20T09:03:15;102776.22;;;14.93;71.99
64362;BME280;50685;53.346;-6.296;2023-05-20T09:05:42;102782.47;;;15.03;71.89
64362;BME280;50685;53.346;-6.296;2023-05-20T09:13:30;102740.59;;;14.99;70.81
64362;BME280;50685;53.346;-6.296;2023-05-20T09:16:16;102755.75;;;15.09;70.67
64362;BME280;50685;53.346;-6.296;2023-05-20T09:18:45;102759.31;;;15.24;70.54
64362;BME280;50685;53.346;-6.296;2023-05-20T09:21:10;102750.41;;;15.17;70.24
64362;BME280;50685;53.346;-6.296;2023-05-20T09:23:39;102767.31;;;15.33;70.26
64362;BME280;50685;53.346;-6.296;2023-05-20T09:26:08;102767.31;;;15.42;69.55
64362;BME280;50685;53.346;-6.296;2023-05-20T09:28:49;102727.22;;;15.18;69.30
64362;BME280;50685;53.346;-6.296;2023-05-20T09:31:23;102712.09;;;15.17;69.31
64362;BME280;50685;53.346;-6.296;2023-05-20T09:33:57;102724.53;;;15.22;68.93
64362;BME280;50685;53.346;-6.296;2023-05-20T09:36:23;102737.91;;;15.32;68.78
64362;BME280;50685;53.346;-6.296;2023-05-20T09:39:02;102738.81;;;15.29;68.29
64362;BME280;50685;53.346;-6.296;2023-05-20T09:41:38;102775.31;;;15.50;68.30
64362;BME280;50685;53.346;-6.296;2023-05-20T09:44:10;102777.97;;;15.53;67.87
64362;BME280;50685;53.346;-6.296;2023-05-20T09:46:46;102774.41;;;15.53;68.02
64362;BME280;50685;53.346;-6.296;2023-05-20T09:49:20;102776.22;;;15.48;67.56
64362;BME280;50685;53.346;-6.296;2023-05-20T09:51:50;102728.13;;;15.18;68.08
64362;BME280;50685;53.346;-6.296;2023-05-20T09:54:21;102775.34;;;15.44;67.71
64362;BME280;50685;53.346;-6.296;2023-05-20T09:57:02;102768.22;;;15.46;68.21
64362;BME280;50685;53.346;-6.296;2023-05-20T09:59:30;102768.22;;;15.46;68.96
64362;BME280;50685;53.346;-6.296;2023-05-20T10:02:10;102761.97;;;15.42;69.12
64362;BME280;50685;53.346;-6.296;2023-05-20T10:04:47;102758.41;;;15.39;69.22
64362;BME280;50685;53.346;-6.296;2023-05-20T10:19:34;102749.44;;;15.51;68.52
64362;BME280;50685;53.346;-6.296;2023-05-20T10:22:05;102758.38;;;15.56;68.15
64362;BME280;50685;53.346;-6.296;2023-05-20T10:24:36;102706.72;;;15.34;68.21
64362;BME280;50685;53.346;-6.296;2023-05-20T10:29:59;102755.66;;;15.71;66.86
64362;BME280;50685;53.346;-6.296;2023-05-20T10:36:00;102748.50;;;15.89;66.67
64362;BME280;50685;53.346;-6.296;2023-05-20T10:38:28;102745.81;;;15.94;66.22
64362;BME280;50685;53.346;-6.296;2023-05-20T10:44:03;102744.88;;;16.02;65.79
64362;BME280;50685;53.346;-6.296;2023-05-20T10:46:29;102703.91;;;15.88;65.31
64362;BME280;50685;53.346;-6.296;2023-05-20T10:48:55;102738.59;;;16.11;65.53
64362;BME280;50685;53.346;-6.296;2023-05-20T10:51:25;102708.34;;;15.97;64.65
64362;BME280;50685;53.346;-6.296;2023-05-20T10:53:54;102736.78;;;16.15;64.38
64362;BME280;50685;53.346;-6.296;2023-05-20T10:56:22;102734.06;;;16.21;64.47
64362;BME280;50685;53.346;-6.296;2023-05-20T10:58:54;102737.66;;;16.26;63.42
64362;BME280;50685;53.346;-6.296;2023-05-20T11:01:26;102734.03;;;16.30;63.49
64362;BME280;50685;53.346;-6.296;2023-05-20T11:03:56;102730.47;;;16.31;63.00
64362;BME280;50685;53.346;-6.296;2023-05-20T11:06:36;102736.72;;;16.33;62.75
64362;BME280;50685;53.346;-6.296;2023-05-20T11:12:04;102724.22;;;16.32;62.42
64362;BME280;50685;53.346;-6.296;2023-05-20T11:14:41;102718.84;;;16.34;63.21
64362;BME280;50685;53.346;-6.296;2023-05-20T11:17:26;102729.53;;;16.35;63.37
64362;BME280;50685;53.346;-6.296;2023-05-20T11:19:52;102721.47;;;16.42;63.59
64362;BME280;50685;53.346;-6.296;2023-05-20T11:22:31;102723.25;;;16.46;63.55
64362;BME280;50685;53.346;-6.296;2023-05-20T11:25:04;102711.56;;;16.54;63.55
64362;BME280;50685;53.346;-6.296;2023-05-20T11:27:30;102707.09;;;16.58;63.59
64362;BME280;50685;53.346;-6.296;2023-05-20T11:29:55;102720.34;;;16.77;63.33
64362;BME280;50685;53.346;-6.296;2023-05-20T11:32:21;102674.88;;;16.69;63.22
64362;BME280;50685;53.346;-6.296;2023-05-20T11:35:23;102656.13;;;16.64;61.80
64362;BME280;50685;53.346;-6.296;2023-05-20T11:40:58;102706.75;;;17.01;62.71
64362;BME280;50685;53.346;-6.296;2023-05-20T11:43:24;102704.06;;;17.03;62.48
64362;BME280;50685;53.346;-6.296;2023-05-20T11:45:57;102693.38;;;17.01;62.49
64362;BME280;50685;53.346;-6.296;2023-05-20T11:48:26;102710.34;;;17.04;62.33
64362;BME280;50685;53.346;-6.296;2023-05-20T11:50:53;102705.88;;;17.02;62.01
64362;BME280;50685;53.346;-6.296;2023-05-20T11:53:20;102708.56;;;16.99;62.08
64362;BME280;50685;53.346;-6.296;2023-05-20T11:55:56;102713.91;;;16.99;61.86
64362;BME280;50685;53.346;-6.296;2023-05-20T11:58:25;102658.69;;;16.78;62.20
64362;BME280;50685;53.346;-6.296;2023-05-20T12:00:53;102654.16;;;16.83;61.90
64362;BME280;50685;53.346;-6.296;2023-05-20T12:03:18;102697.72;;;17.13;62.03
64362;BME280;50685;53.346;-6.296;2023-05-20T12:05:44;102670.22;;;16.93;62.76
64362;BME280;50685;53.346;-6.296;2023-05-20T12:08:18;102697.84;;;16.99;63.39
64362;BME280;50685;53.346;-6.296;2023-05-20T12:10:43;102676.53;;;16.84;64.14
64362;BME280;50685;53.346;-6.296;2023-05-20T12:13:16;102694.38;;;16.85;64.81
64362;BME280;50685;53.346;-6.296;2023-05-20T12:15:46;102698.88;;;16.78;64.94
64362;BME280;50685;53.346;-6.296;2023-05-20T12:18:14;102667.84;;;16.51;65.45
64362;BME280;50685;53.346;-6.296;2023-05-20T12:20:41;102666.97;;;16.52;65.35
64362;BME280;50685;53.346;-6.296;2023-05-20T12:23:16;102678.47;;;16.60;65.15
64362;BME280;50685;53.346;-6.296;2023-05-20T12:25:52;102698.03;;;16.70;65.11
64362;BME280;50685;53.346;-6.296;2023-05-20T12:28:23;102676.69;;;16.62;64.61
64362;BME280;50685;53.346;-6.296;2023-05-20T12:33:56;102686.38;;;16.80;64.21
64362;BME280;50685;53.346;-6.296;2023-05-20T12:36:22;102650.00;;;16.53;63.75
64362;BME280;50685;53.346;-6.296;2023-05-20T12:38:47;102690.88;;;16.77;64.07
64362;BME280;50685;53.346;-6.296;2023-05-20T12:44:42;102683.66;;;16.83;63.63
64362;BME280;50685;53.346;-6.296;2023-05-20T12:47:08;102677.34;;;16.94;63.44
64362;BME280;50685;53.346;-6.296;2023-05-20T12:49:34;102655.00;;;16.93;62.88
64362;BME280;50685;53.346;-6.296;2023-05-20T12:52:08;102667.41;;;17.05;62.79
64362;BME280;50685;53.346;-6.296;2023-05-20T12:54:57;102623.88;;;16.74;62.47
64362;BME280;50685;53.346;-6.296;2023-05-20T12:57:31;102666.50;;;17.06;62.19
64362;BME280;50685;53.346;-6.296;2023-05-20T12:59:57;102636.25;;;16.95;62.28
64362;BME280;50685;53.346;-6.296;2023-05-20T13:02:23;102654.81;;;17.15;61.95
64362;BME280;50685;53.346;-6.296;2023-05-20T13:04:57;102664.44;;;17.31;61.81
64362;BME280;50685;53.346;-6.296;2023-05-20T13:20:12;102654.38;;;17.52;59.97
64362;BME280;50685;53.346;-6.296;2023-05-20T13:22:46;102615.22;;;17.37;59.94
64362;BME280;50685;53.346;-6.296;2023-05-20T13:25:17;102640.94;;;17.54;59.93
64362;BME280;50685;53.346;-6.296;2023-05-20T13:28:01;102640.03;;;17.58;59.18
64362;BME280;50685;53.346;-6.296;2023-05-20T13:30:29;102629.22;;;17.61;59.65
64362;BME280;50685;53.346;-6.296;2023-05-20T13:32:55;102635.56;;;17.57;59.33
64362;BME280;50685;53.346;-6.296;2023-05-20T13:35:38;102585.81;;;17.31;59.39
64362;BME280;50685;53.346;-6.296;2023-05-20T13:38:22;102624.84;;;17.54;58.61
64362;BME280;50685;53.346;-6.296;2023-05-20T13:40:48;102611.44;;;17.54;59.34
64362;BME280;50685;53.346;-6.296;2023-05-20T13:43:32;102624.75;;;17.63;58.51
64362;BME280;50685;53.346;-6.296;2023-05-20T13:46:26;102603.31;;;17.58;58.16
64362;BME280;50685;53.346;-6.296;2023-05-20T13:49:16;102593.53;;;17.56;57.32
64362;BME280;50685;53.346;-6.296;2023-05-20T13:51:41;102614.00;;;17.63;58.46
64362;BME280;50685;53.346;-6.296;2023-05-20T13:57:22;102601.25;;;17.80;57.71
64362;BME280;50685;53.346;-6.296;2023-05-20T13:59:48;102602.06;;;17.86;57.71
64362;BME280;50685;53.346;-6.296;2023-05-20T14:02:14;102610.09;;;17.89;57.32
64362;BME280;50685;53.346;-6.296;2023-05-20T14:04:39;102601.16;;;17.87;57.29
64362;BME280;50685;53.346;-6.296;2023-05-20T14:07:12;102603.94;;;17.79;56.79
64362;BME280;50685;53.346;-6.296;2023-05-20T14:12:16;102566.63;;;17.62;57.22
64362;BME280;50685;53.346;-6.296;2023-05-20T14:15:02;102587.09;;;17.69;56.67
64362;BME280;50685;53.346;-6.296;2023-05-20T14:17:30;102605.69;;;17.83;56.90
64362;BME280;50685;53.346;-6.296;2023-05-20T14:20:01;102587.81;;;17.80;56.85
64362;BME280;50685;53.346;-6.296;2023-05-20T14:26:09;102547.09;;;17.50;57.04
64362;BME280;50685;53.346;-6.296;2023-05-20T14:29:04;102578.16;;;17.69;56.85
64362;BME280;50685;53.346;-6.296;2023-05-20T14:34:44;102576.19;;;17.81;57.06
64362;BME280;50685;53.346;-6.296;2023-05-20T14:37:09;102578.84;;;17.85;56.93
64362;BME280;50685;53.346;-6.296;2023-05-20T14:39:36;102574.47;;;17.77;56.87
64362;BME280;50685;53.346;-6.296;2023-05-20T14:42:12;102578.94;;;17.75;57.08
64362;BME280;50685;53.346;-6.296;2023-05-20T14:44:43;102576.53;;;17.57;56.98
64362;BME280;50685;53.346;-6.296;2023-05-20T14:47:11;102569.28;;;17.65;56.98
64362;BME280;50685;53.346;-6.296;2023-05-20T14:49:44;102567.50;;;17.64;56.66
64362;BME280;50685;53.346;-6.296;2023-05-20T14:52:30;102539.09;;;17.46;56.59
64362;BME280;50685;53.346;-6.296;2023-05-20T14:55:20;102568.34;;;17.67;56.33
64362;BME280;50685;53.346;-6.296;2023-05-20T14:57:49;102569.28;;;17.65;56.01
64362;BME280;50685;53.346;-6.296;2023-05-20T15:00:23;102567.44;;;17.67;55.40
64362;BME280;50685;53.346;-6.296;2023-05-20T15:02:52;102529.34;;;17.42;55.31
64362;BME280;50685;53.346;-6.296;2023-05-20T15:05:17;102557.69;;;17.61;55.46
64362;BME280;50685;53.346;-6.296;2023-05-20T15:25:42;102531.06;;;17.46;55.27
64362;BME280;50685;53.346;-6.296;2023-05-20T15:28:14;102498.16;;;17.31;55.18
64362;BME280;50685;53.346;-6.296;2023-05-20T15:30:49;102525.66;;;17.49;55.30
64362;BME280;50685;53.346;-6.296;2023-05-20T15:33:18;102502.63;;;17.32;55.10
64362;BME280;50685;53.346;-6.296;2023-05-20T15:35:44;102499.00;;;17.38;55.11
64362;BME280;50685;53.346;-6.296;2023-05-20T15:38:19;102538.09;;;17.55;54.94
64362;BME280;50685;53.346;-6.296;2023-05-20T15:40:51;102529.19;;;17.53;55.14
64362;BME280;50685;53.346;-6.296;2023-05-20T15:43:29;102504.28;;;17.41;55.26
64362;BME280;50685;53.346;-6.296;2023-05-20T15:46:07;102528.22;;;17.58;55.03
64362;BME280;50685;53.346;-6.296;2023-05-20T15:48:35;102479.50;;;17.27;54.98
64362;BME280;50685;53.346;-6.296;2023-05-20T15:51:06;102530.00;;;17.56;54.25
64362;BME280;50685;53.346;-6.296;2023-05-20T15:53:32;102533.66;;;17.52;54.73
64362;BME280;50685;53.346;-6.296;2023-05-20T16:02:22;102524.84;;;17.42;55.17
64362;BME280;50685;53.346;-6.296;2023-05-20T16:05:21;102488.66;;;17.09;55.18
64362;BME280;50685;53.346;-6.296;2023-05-20T16:35:26;102486.16;;;16.93;56.02
64362;BME280;50685;53.346;-6.296;2023-05-20T16:37:55;102522.56;;;17.11;56.39
64362;BME280;50685;53.346;-6.296;2023-05-20T16:40:24;102467.50;;;16.81;56.83
64362;BME280;50685;53.346;-6.296;2023-05-20T16:42:50;102488.03;;;16.85;57.65
64362;BME280;50685;53.346;-6.296;2023-05-20T16:45:21;102487.16;;;16.80;57.91
64362;BME280;50685;53.346;-6.296;2023-05-20T16:48:00;102490.72;;;16.85;58.02
64362;BME280;50685;53.346;-6.296;2023-05-20T16:50:28;102463.13;;;16.75;58.23
64362;BME280;50685;53.346;-6.296;2023-05-20T16:52:54;102510.25;;;16.96;58.61
64362;BME280;50685;53.346;-6.296;2023-05-20T16:55:20;102501.34;;;16.93;58.78
64362;BME280;50685;53.346;-6.296;2023-05-20T16:57:51;102477.41;;;16.76;59.04
64362;BME280;50685;53.346;-6.296;2023-05-20T17:00:19;102495.16;;;16.88;59.25
64362;BME280;50685;53.346;-6.296;2023-05-20T17:02:50;102497.88;;;16.83;59.93
64362;BME280;50685;53.346;-6.296;2023-05-20T17:05:19;102455.25;;;16.60;60.35
64362;BME280;50685;53.346;-6.296;2023-05-20T17:16:05;102470.41;;;16.62;61.90
64362;BME280;50685;53.346;-6.296;2023-05-20T17:21:37;102465.22;;;16.48;62.72
64362;BME280;50685;53.346;-6.296;2023-05-20T17:24:03;102476.72;;;16.55;62.88
64362;BME280;50685;53.346;-6.296;2023-05-20T17:26:34;102479.44;;;16.53;62.99
64362;BME280;50685;53.346;-6.296;2023-05-20T17:29:03;102477.72;;;16.46;63.39
64362;BME280;50685;53.346;-6.296;2023-05-20T17:31:30;102471.53;;;16.41;64.09
64362;BME280;50685;53.346;-6.296;2023-05-20T17:34:01;102472.50;;;16.34;64.78
64362;BME280;50685;53.346;-6.296;2023-05-20T17:36:27;102471.69;;;16.24;64.84
64362;BME280;50685;53.346;-6.296;2023-05-20T17:38:52;102437.09;;;16.01;65.02
64362;BME280;50685;53.346;-6.296;2023-05-20T17:41:18;102480.59;;;16.26;65.61
64362;BME280;50685;53.346;-6.296;2023-05-20T17:43:57;102447.75;;;16.07;65.67
64362;BME280;50685;53.346;-6.296;2023-05-20T17:46:47;102486.00;;;16.18;66.08
64362;BME280;50685;53.346;-6.296;2023-05-20T17:49:13;102477.06;;;16.22;65.84
64362;BME280;50685;53.346;-6.296;2023-05-20T17:51:51;102472.63;;;16.18;66.14
64362;BME280;50685;53.346;-6.296;2023-05-20T17:54:34;102446.88;;;16.06;65.70
64362;BME280;50685;53.346;-6.296;2023-05-20T18:02:50;102475.16;;;16.35;66.28
64362;BME280;50685;53.346;-6.296;2023-05-20T18:05:23;102480.50;;;16.38;65.93
64362;BME280;50685;53.346;-6.296;2023-05-20T18:22:10;102454.75;;;16.22;64.93
64362;BME280;50685;53.346;-6.296;2023-05-20T18:24:38;102466.31;;;16.27;65.18
64362;BME280;50685;53.346;-6.296;2023-05-20T18:27:12;102473.34;;;16.37;64.85
64362;BME280;50685;53.346;-6.296;2023-05-20T18:29:46;102473.38;;;16.33;65.20
64362;BME280;50685;53.346;-6.296;2023-05-20T18:32:14;102428.22;;;16.00;65.37
64362;BME280;50685;53.346;-6.296;2023-05-20T18:34:40;102474.38;;;16.24;65.83